Sichem Singapore — 9HA4414 — position and weather

sailwx.info

Track history (hours):
 
Tides and Currents Weather Stations Pressure Air Temp Water Temp Dewpoint Dewpoint Depression Visibility Wind Speed Wind Dir Waves Ship Positions

Sichem Singapore

Last reported at 2018-Feb-14 07:21 UTC. Time now 2018-Feb-24 23:25 UTC.
Position N 36°38' E 014°39'.
Warning: this ship's position is 10 days out of date.

Length 128 m; draft 8.7 m.

Type: Tanker. MMSI: 249880000.

Date/timePositionNaut miles runAvg speedWind from/ knotsBaromVisibWave heightAir tempDewpointWater temp
2018-Feb-14 07:21N 36°38' E 014°39'513.0
2018-Feb-14 07:00N 36°39' E 014°34'612.7
2018-Feb-14 06:30N 36°41' E 014°27'29412.4
2018-Feb-13 06:44N 38°37' E 008°45'313.4
2018-Feb-13 06:29N 38°38' E 008°41'32312.5
2018-Feb-12 04:44N 41°08' E 002°29'312.2
2018-Feb-12 04:30N 41°10' E 002°26'611.9
2018-Feb-12 04:00N 41°13' E 002°19'611.4
2018-Feb-12 03:30N 41°16' E 002°13'5 9.2
2018-Feb-12 03:00N 41°20' E 002°10'1 1.1
2018-Feb-12 02:25N 41°20' E 002°09'0 0.0
2018-Feb-12 01:58N 41°20' E 002°09'0 0.0
2018-Feb-12 01:19N 41°20' E 002°09'0 0.0
2018-Feb-12 00:55N 41°20' E 002°09'0 0.0
2018-Feb-12 00:19N 41°20' E 002°09'0 0.0
2018-Feb-11 23:55N 41°20' E 002°09'0 0.0
2018-Feb-11 22:55N 41°20' E 002°09'0 0.0
2018-Feb-11 22:25N 41°20' E 002°09'0 0.0
2018-Feb-11 21:55N 41°20' E 002°09'0 0.0
2018-Feb-11 21:25N 41°20' E 002°09'0 0.0
2018-Feb-11 20:55N 41°20' E 002°09'0 0.0
2018-Feb-11 20:25N 41°20' E 002°09'0 0.0
2018-Feb-11 19:55N 41°20' E 002°09'0 0.0
2018-Feb-11 19:25N 41°20' E 002°09'0 0.0
2018-Feb-11 18:55N 41°20' E 002°09'0 0.0
2018-Feb-11 18:25N 41°20' E 002°09'0 0.0
2018-Feb-11 17:55N 41°20' E 002°09'0 0.0
2018-Feb-11 17:25N 41°20' E 002°09'0 0.0
2018-Feb-11 16:55N 41°20' E 002°09'0 0.0
2018-Feb-11 16:25N 41°20' E 002°09'0 0.0
2018-Feb-11 15:55N 41°20' E 002°09'0 0.0
2018-Feb-11 15:25N 41°20' E 002°09'0 0.0
2018-Feb-11 14:55N 41°20' E 002°09'0 0.0
2018-Feb-11 14:19N 41°20' E 002°09'0 0.0
2018-Feb-11 13:55N 41°20' E 002°09'0 0.0
2018-Feb-11 13:25N 41°20' E 002°09'0 0.0
2018-Feb-11 12:55N 41°20' E 002°09'0 0.0
2018-Feb-11 12:28N 41°20' E 002°09'0 0.0
2018-Feb-11 11:58N 41°20' E 002°09'0 0.0
2018-Feb-11 11:16N 41°20' E 002°09'0 0.0
2018-Feb-11 10:58N 41°20' E 002°09'0 0.0
2018-Feb-11 10:28N 41°20' E 002°09'0 0.0
2018-Feb-11 09:55N 41°20' E 002°09'0 0.0
2018-Feb-11 09:25N 41°20' E 002°09'0 0.0
2018-Feb-11 08:37N 41°20' E 002°09'0 0.0
2018-Feb-11 08:22N 41°20' E 002°09'0 0.0
2018-Feb-11 07:55N 41°20' E 002°09'0 0.0
2018-Feb-11 07:25N 41°20' E 002°09'0 0.0
2018-Feb-11 05:43N 41°20' E 002°09'0 0.0
2018-Feb-11 05:25N 41°20' E 002°09'0 0.0
2018-Feb-11 04:07N 41°20' E 002°09'0 0.0
2018-Feb-11 03:55N 41°20' E 002°09'0 0.0
2018-Feb-11 03:19N 41°20' E 002°09'0 0.0
2018-Feb-11 02:49N 41°20' E 002°09'0 0.0
2018-Feb-11 02:25N 41°20' E 002°09'0 0.0
2018-Feb-11 01:55N 41°20' E 002°09'0 0.0
2018-Feb-11 01:25N 41°20' E 002°09'0 0.0
2018-Feb-11 00:55N 41°20' E 002°09'0 0.0
2018-Feb-11 00:25N 41°20' E 002°09'0 0.0
2018-Feb-10 23:58N 41°20' E 002°09'0 0.0
2018-Feb-10 23:25N 41°20' E 002°09'0 0.0
2018-Feb-10 22:58N 41°20' E 002°09'0 0.0
2018-Feb-10 22:22N 41°20' E 002°09'0 0.0
2018-Feb-10 21:43N 41°20' E 002°09'0 0.0
2018-Feb-10 21:19N 41°20' E 002°09'0 0.0
2018-Feb-10 20:55N 41°20' E 002°09'0 0.0
2018-Feb-10 20:13N 41°20' E 002°09'0 0.0
2018-Feb-10 19:58N 41°20' E 002°09'0 0.0
2018-Feb-10 18:37N 41°20' E 002°09'0 0.0
2018-Feb-10 18:25N 41°20' E 002°09'0 0.0
2018-Feb-10 17:55N 41°20' E 002°09'0 0.0
2018-Feb-10 17:28N 41°20' E 002°09'0 0.0
2018-Feb-10 16:58N 41°20' E 002°09'0 0.0
2018-Feb-10 16:28N 41°20' E 002°09'0 0.0
2018-Feb-10 16:00N 41°20' E 002°09'0 0.0
2018-Feb-10 15:30N 41°20' E 002°09'1 1.4
2018-Feb-10 15:00N 41°20' E 002°10'3 5.1
2018-Feb-10 14:30N 41°18' E 002°11'1 2.0
2018-Feb-10 14:00N 41°19' E 002°11'0 0.4
2018-Feb-10 13:30N 41°19' E 002°11'0 0.0
2018-Feb-10 13:00N 41°19' E 002°11'0 0.1
2018-Feb-10 12:30N 41°19' E 002°11'0 0.1
2018-Feb-10 12:00N 41°19' E 002°11'0 0.0
2018-Feb-10 11:30N 41°19' E 002°11'0 0.1
2018-Feb-10 11:00N 41°19' E 002°11'0 0.0
2018-Feb-10 10:30N 41°19' E 002°11'0 0.0
2018-Feb-10 09:57N 41°19' E 002°11'0 0.0
2018-Feb-10 09:30N 41°19' E 002°11'0 0.0
2018-Feb-10 09:00N 41°19' E 002°11'0 0.0
2018-Feb-10 08:30N 41°19' E 002°11'0 0.0
2018-Feb-10 08:00N 41°19' E 002°11'0 0.1
2018-Feb-10 07:30N 41°19' E 002°11'0 0.1
2018-Feb-10 07:00N 41°19' E 002°11'0 0.0
2018-Feb-10 06:30N 41°19' E 002°11'0 0.1
2018-Feb-10 06:00N 41°19' E 002°11'0 0.0
2018-Feb-10 05:30N 41°19' E 002°11'0 0.1
2018-Feb-10 05:00N 41°19' E 002°11'0 0.0
2018-Feb-10 04:30N 41°19' E 002°11'0 0.0
2018-Feb-10 04:00N 41°19' E 002°11'0 0.0
2018-Feb-10 03:30N 41°19' E 002°11'0 0.0
2018-Feb-10 03:00N 41°19' E 002°11'0 0.0
2018-Feb-10 02:30N 41°19' E 002°11'0 0.0
2018-Feb-10 02:00N 41°19' E 002°11'0 0.0
2018-Feb-10 01:30N 41°19' E 002°11'0 0.1
2018-Feb-10 01:00N 41°19' E 002°11'0 0.0
2018-Feb-10 00:30N 41°19' E 002°11'0 0.1
2018-Feb-10 00:00N 41°19' E 002°11'0 0.0
2018-Feb-09 23:30N 41°19' E 002°11'0 0.0
2018-Feb-09 23:00N 41°19' E 002°11'0 0.0
2018-Feb-09 22:45N 41°19' E 002°11'1 0.1
2018-Feb-09 15:00N 41°19' E 002°12'4 7.1
2018-Feb-09 14:30N 41°15' E 002°14'  
2018-Feb-07 09:21N 35°56' E 014°52'0 0.0
2018-Feb-07 08:54N 35°56' E 014°52'0 0.0
2018-Feb-07 08:30N 35°56' E 014°52'0 0.0
2018-Feb-07 07:54N 35°56' E 014°51'0 0.0
2018-Feb-07 07:27N 35°56' E 014°51'0 0.0
2018-Feb-07 07:00N 35°56' E 014°51'0 0.0
2018-Feb-07 06:27N 35°56' E 014°51'0 0.1
2018-Feb-07 06:00N 35°56' E 014°51'0 0.0
2018-Feb-07 05:30N 35°56' E 014°51'0 0.0
2018-Feb-07 05:00N 35°56' E 014°51'0 0.0
2018-Feb-07 04:30N 35°56' E 014°51'0 0.0
2018-Feb-07 03:57N 35°56' E 014°51'0 0.2
2018-Feb-07 03:27N 35°56' E 014°51'0 0.1
2018-Feb-07 03:00N 35°56' E 014°51'0 0.0
2018-Feb-07 02:27N 35°56' E 014°51'0 0.1
2018-Feb-07 02:00N 35°56' E 014°51'0 0.1
2018-Feb-07 01:24N 35°56' E 014°51'0 0.0
2018-Feb-07 00:57N 35°56' E 014°51'0 0.0
2018-Feb-07 00:27N 35°56' E 014°51'0 0.0
2018-Feb-07 00:00N 35°56' E 014°51'0 0.0
2018-Feb-06 23:30N 35°56' E 014°51'0 0.0
2018-Feb-06 23:00N 35°56' E 014°51'0 0.0
2018-Feb-06 22:27N 35°56' E 014°51'0 0.0
2018-Feb-06 22:00N 35°56' E 014°51'0 0.1
2018-Feb-06 21:30N 35°56' E 014°51'0 0.0
2018-Feb-06 21:00N 35°56' E 014°51'0 0.0
2018-Feb-06 20:27N 35°56' E 014°51'0 0.0
2018-Feb-06 20:00N 35°56' E 014°51'0 0.0
2018-Feb-06 19:27N 35°56' E 014°51'0 0.0
2018-Feb-06 19:00N 35°56' E 014°51'0 0.0
2018-Feb-06 18:24N 35°56' E 014°51'0 0.0
2018-Feb-06 18:00N 35°56' E 014°51'0 0.0
2018-Feb-06 17:24N 35°56' E 014°51'0 0.0
2018-Feb-06 16:57N 35°56' E 014°51'0 0.0
2018-Feb-06 16:30N 35°56' E 014°51'0 0.0
2018-Feb-06 16:00N 35°56' E 014°51'0 0.0
2018-Feb-06 15:30N 35°56' E 014°51'0 0.0
2018-Feb-06 15:00N 35°56' E 014°51'0 0.0
2018-Feb-06 14:30N 35°56' E 014°51'0 0.0
2018-Feb-06 13:57N 35°56' E 014°51'0 0.0
2018-Feb-06 13:27N 35°56' E 014°51'0 0.0
2018-Feb-06 12:57N 35°56' E 014°51'0 0.0
2018-Feb-06 12:30N 35°56' E 014°51'0 0.0
2018-Feb-06 12:00N 35°56' E 014°51'0 0.0
2018-Feb-06 11:24N 35°56' E 014°51'0 0.0
2018-Feb-06 11:00N 35°56' E 014°51'0 0.0
2018-Feb-06 10:21N 35°56' E 014°51'0 0.0
2018-Feb-06 10:00N 35°56' E 014°51'0 0.0
2018-Feb-06 09:30N 35°56' E 014°51'0 0.0
2018-Feb-06 09:00N 35°56' E 014°51'0 0.0
2018-Feb-06 08:27N 35°56' E 014°51'0 0.0
2018-Feb-06 07:54N 35°56' E 014°51'0 0.0
2018-Feb-06 07:18N 35°56' E 014°51'0 0.0
2018-Feb-06 06:57N 35°56' E 014°51'0 0.0
2018-Feb-06 06:21N 35°56' E 014°51'0 0.0
2018-Feb-06 06:00N 35°56' E 014°51'0 0.0
2018-Feb-06 05:15N 35°56' E 014°51'0 0.0
2018-Feb-06 05:00N 35°56' E 014°51'0 0.0
2018-Feb-06 04:27N 35°56' E 014°51'0 0.0
2018-Feb-06 04:00N 35°56' E 014°51'0 0.0
2018-Feb-06 03:30N 35°56' E 014°51'0 0.1
2018-Feb-06 02:57N 35°56' E 014°51'0 0.0
2018-Feb-06 02:03N 35°56' E 014°51'0 0.0
2018-Feb-06 01:51N 35°56' E 014°51'0 0.0
2018-Feb-06 01:24N 35°56' E 014°51'0 0.0
2018-Feb-06 01:00N 35°56' E 014°51'0 0.0
2018-Feb-06 00:30N 35°56' E 014°51'0 0.0
2018-Feb-05 23:51N 35°56' E 014°51'0 0.0
2018-Feb-05 23:30N 35°56' E 014°51'0 0.0
2018-Feb-05 22:48N 35°56' E 014°51'0 0.0
2018-Feb-05 22:09N 35°56' E 014°51'0 0.1
2018-Feb-05 22:00N 35°56' E 014°51'0 0.0
2018-Feb-05 21:30N 35°56' E 014°51'0 0.0
2018-Feb-05 20:51N 35°56' E 014°51'0 0.0
2018-Feb-05 20:27N 35°56' E 014°51'0 0.0
2018-Feb-05 19:57N 35°56' E 014°51'0 0.0
2018-Feb-05 19:30N 35°56' E 014°51'0 0.0
2018-Feb-05 18:54N 35°56' E 014°51'0 0.0
2018-Feb-05 17:51N 35°56' E 014°51'0 0.0
2018-Feb-05 17:27N 35°56' E 014°51'0 0.1
2018-Feb-05 16:51N 35°56' E 014°51'0 0.0
2018-Feb-05 16:30N 35°56' E 014°51'0 0.0
2018-Feb-05 16:00N 35°56' E 014°51'0 0.0
2018-Feb-05 15:30N 35°56' E 014°51'0 0.0
2018-Feb-05 15:00N 35°56' E 014°51'0 0.0
2018-Feb-05 14:30N 35°56' E 014°51'0 0.0
2018-Feb-05 13:54N 35°56' E 014°51'0 0.0
2018-Feb-05 13:27N 35°56' E 014°51'0 0.0
2018-Feb-05 12:57N 35°56' E 014°51'0 0.0
2018-Feb-05 12:24N 35°56' E 014°51'0 0.0
2018-Feb-05 12:00N 35°56' E 014°51'0 0.0
2018-Feb-05 11:24N 35°56' E 014°51'0 0.0
2018-Feb-05 11:00N 35°56' E 014°51'0 0.0
2018-Feb-05 10:27N 35°56' E 014°51'0 0.0
2018-Feb-05 09:39N 35°56' E 014°51'0 0.1
2018-Feb-05 09:16N 35°56' E 014°51'0 1.3
2018-Feb-05 09:00N 35°56' E 014°52'  
Track history (hours):
 
Tides and Currents Weather Stations Pressure Air Temp Water Temp Dewpoint Dewpoint Depression Visibility Wind Speed Wind Dir Waves Ship Positions

Sichem Singapore

Last reported at 2018-Feb-14 07:21 UTC. Time now 2018-Feb-24 23:25 UTC.
Position N 36°38' E 014°39'.
Warning: this ship's position is 10 days out of date.

Length 128 m; draft 8.7 m.

Type: Tanker. MMSI: 249880000.

Date/timePositionNaut miles runAvg speedWind from/ knotsBaromVisibWave heightAir tempDewpointWater temp
2018-Feb-14 07:21N 36°38' E 014°39'513.0
2018-Feb-14 07:00N 36°39' E 014°34'612.7
2018-Feb-14 06:30N 36°41' E 014°27'29412.4
2018-Feb-13 06:44N 38°37' E 008°45'313.4
2018-Feb-13 06:29N 38°38' E 008°41'32312.5
2018-Feb-12 04:44N 41°08' E 002°29'312.2
2018-Feb-12 04:30N 41°10' E 002°26'611.9
2018-Feb-12 04:00N 41°13' E 002°19'611.4
2018-Feb-12 03:30N 41°16' E 002°13'5 9.2
2018-Feb-12 03:00N 41°20' E 002°10'1 1.1
2018-Feb-12 02:25N 41°20' E 002°09'0 0.0
2018-Feb-12 01:58N 41°20' E 002°09'0 0.0
2018-Feb-12 01:19N 41°20' E 002°09'0 0.0
2018-Feb-12 00:55N 41°20' E 002°09'0 0.0
2018-Feb-12 00:19N 41°20' E 002°09'0 0.0
2018-Feb-11 23:55N 41°20' E 002°09'0 0.0
2018-Feb-11 22:55N 41°20' E 002°09'0 0.0
2018-Feb-11 22:25N 41°20' E 002°09'0 0.0
2018-Feb-11 21:55N 41°20' E 002°09'0 0.0
2018-Feb-11 21:25N 41°20' E 002°09'0 0.0
2018-Feb-11 20:55N 41°20' E 002°09'0 0.0
2018-Feb-11 20:25N 41°20' E 002°09'0 0.0
2018-Feb-11 19:55N 41°20' E 002°09'0 0.0
2018-Feb-11 19:25N 41°20' E 002°09'0 0.0
2018-Feb-11 18:55N 41°20' E 002°09'0 0.0
2018-Feb-11 18:25N 41°20' E 002°09'0 0.0
2018-Feb-11 17:55N 41°20' E 002°09'0 0.0
2018-Feb-11 17:25N 41°20' E 002°09'0 0.0
2018-Feb-11 16:55N 41°20' E 002°09'0 0.0
2018-Feb-11 16:25N 41°20' E 002°09'0 0.0
2018-Feb-11 15:55N 41°20' E 002°09'0 0.0
2018-Feb-11 15:25N 41°20' E 002°09'0 0.0
2018-Feb-11 14:55N 41°20' E 002°09'0 0.0
2018-Feb-11 14:19N 41°20' E 002°09'0 0.0
2018-Feb-11 13:55N 41°20' E 002°09'0 0.0
2018-Feb-11 13:25N 41°20' E 002°09'0 0.0
2018-Feb-11 12:55N 41°20' E 002°09'0 0.0
2018-Feb-11 12:28N 41°20' E 002°09'0 0.0
2018-Feb-11 11:58N 41°20' E 002°09'0 0.0
2018-Feb-11 11:16N 41°20' E 002°09'0 0.0
2018-Feb-11 10:58N 41°20' E 002°09'0 0.0
2018-Feb-11 10:28N 41°20' E 002°09'0 0.0
2018-Feb-11 09:55N 41°20' E 002°09'0 0.0
2018-Feb-11 09:25N 41°20' E 002°09'0 0.0
2018-Feb-11 08:37N 41°20' E 002°09'0 0.0
2018-Feb-11 08:22N 41°20' E 002°09'0 0.0
2018-Feb-11 07:55N 41°20' E 002°09'0 0.0
2018-Feb-11 07:25N 41°20' E 002°09'0 0.0
2018-Feb-11 05:43N 41°20' E 002°09'0 0.0
2018-Feb-11 05:25N 41°20' E 002°09'0 0.0
2018-Feb-11 04:07N 41°20' E 002°09'0 0.0
2018-Feb-11 03:55N 41°20' E 002°09'0 0.0
2018-Feb-11 03:19N 41°20' E 002°09'0 0.0
2018-Feb-11 02:49N 41°20' E 002°09'0 0.0
2018-Feb-11 02:25N 41°20' E 002°09'0 0.0
2018-Feb-11 01:55N 41°20' E 002°09'0 0.0
2018-Feb-11 01:25N 41°20' E 002°09'0 0.0
2018-Feb-11 00:55N 41°20' E 002°09'0 0.0
2018-Feb-11 00:25N 41°20' E 002°09'0 0.0
2018-Feb-10 23:58N 41°20' E 002°09'0 0.0
2018-Feb-10 23:25N 41°20' E 002°09'0 0.0
2018-Feb-10 22:58N 41°20' E 002°09'0 0.0
2018-Feb-10 22:22N 41°20' E 002°09'0 0.0
2018-Feb-10 21:43N 41°20' E 002°09'0 0.0
2018-Feb-10 21:19N 41°20' E 002°09'0 0.0
2018-Feb-10 20:55N 41°20' E 002°09'0 0.0
2018-Feb-10 20:13N 41°20' E 002°09'0 0.0
2018-Feb-10 19:58N 41°20' E 002°09'0 0.0
2018-Feb-10 18:37N 41°20' E 002°09'0 0.0
2018-Feb-10 18:25N 41°20' E 002°09'0 0.0
2018-Feb-10 17:55N 41°20' E 002°09'0 0.0
2018-Feb-10 17:28N 41°20' E 002°09'0 0.0
2018-Feb-10 16:58N 41°20' E 002°09'0 0.0
2018-Feb-10 16:28N 41°20' E 002°09'0 0.0
2018-Feb-10 16:00N 41°20' E 002°09'0 0.0
2018-Feb-10 15:30N 41°20' E 002°09'1 1.4
2018-Feb-10 15:00N 41°20' E 002°10'3 5.1
2018-Feb-10 14:30N 41°18' E 002°11'1 2.0
2018-Feb-10 14:00N 41°19' E 002°11'0 0.4
2018-Feb-10 13:30N 41°19' E 002°11'0 0.0
2018-Feb-10 13:00N 41°19' E 002°11'0 0.1
2018-Feb-10 12:30N 41°19' E 002°11'0 0.1
2018-Feb-10 12:00N 41°19' E 002°11'0 0.0
2018-Feb-10 11:30N 41°19' E 002°11'0 0.1
2018-Feb-10 11:00N 41°19' E 002°11'0 0.0
2018-Feb-10 10:30N 41°19' E 002°11'0 0.0
2018-Feb-10 09:57N 41°19' E 002°11'0 0.0
2018-Feb-10 09:30N 41°19' E 002°11'0 0.0
2018-Feb-10 09:00N 41°19' E 002°11'0 0.0
2018-Feb-10 08:30N 41°19' E 002°11'0 0.0
2018-Feb-10 08:00N 41°19' E 002°11'0 0.1
2018-Feb-10 07:30N 41°19' E 002°11'0 0.1
2018-Feb-10 07:00N 41°19' E 002°11'0 0.0
2018-Feb-10 06:30N 41°19' E 002°11'0 0.1
2018-Feb-10 06:00N 41°19' E 002°11'0 0.0
2018-Feb-10 05:30N 41°19' E 002°11'0 0.1
2018-Feb-10 05:00N 41°19' E 002°11'0 0.0
2018-Feb-10 04:30N 41°19' E 002°11'0 0.0
2018-Feb-10 04:00N 41°19' E 002°11'0 0.0
2018-Feb-10 03:30N 41°19' E 002°11'0 0.0
2018-Feb-10 03:00N 41°19' E 002°11'0 0.0
2018-Feb-10 02:30N 41°19' E 002°11'0 0.0
2018-Feb-10 02:00N 41°19' E 002°11'0 0.0
2018-Feb-10 01:30N 41°19' E 002°11'0 0.1
2018-Feb-10 01:00N 41°19' E 002°11'0 0.0
2018-Feb-10 00:30N 41°19' E 002°11'0 0.1
2018-Feb-10 00:00N 41°19' E 002°11'0 0.0
2018-Feb-09 23:30N 41°19' E 002°11'0 0.0
2018-Feb-09 23:00N 41°19' E 002°11'0 0.0
2018-Feb-09 22:45N 41°19' E 002°11'1 0.1
2018-Feb-09 15:00N 41°19' E 002°12'4 7.1
2018-Feb-09 14:30N 41°15' E 002°14'  
2018-Feb-07 09:21N 35°56' E 014°52'0 0.0
2018-Feb-07 08:54N 35°56' E 014°52'0 0.0
2018-Feb-07 08:30N 35°56' E 014°52'0 0.0
2018-Feb-07 07:54N 35°56' E 014°51'0 0.0
2018-Feb-07 07:27N 35°56' E 014°51'0 0.0
2018-Feb-07 07:00N 35°56' E 014°51'0 0.0
2018-Feb-07 06:27N 35°56' E 014°51'0 0.1
2018-Feb-07 06:00N 35°56' E 014°51'0 0.0
2018-Feb-07 05:30N 35°56' E 014°51'0 0.0
2018-Feb-07 05:00N 35°56' E 014°51'0 0.0
2018-Feb-07 04:30N 35°56' E 014°51'0 0.0
2018-Feb-07 03:57N 35°56' E 014°51'0 0.2
2018-Feb-07 03:27N 35°56' E 014°51'0 0.1
2018-Feb-07 03:00N 35°56' E 014°51'0 0.0
2018-Feb-07 02:27N 35°56' E 014°51'0 0.1
2018-Feb-07 02:00N 35°56' E 014°51'0 0.1
2018-Feb-07 01:24N 35°56' E 014°51'0 0.0
2018-Feb-07 00:57N 35°56' E 014°51'0 0.0
2018-Feb-07 00:27N 35°56' E 014°51'0 0.0
2018-Feb-07 00:00N 35°56' E 014°51'0 0.0
2018-Feb-06 23:30N 35°56' E 014°51'0 0.0
2018-Feb-06 23:00N 35°56' E 014°51'0 0.0
2018-Feb-06 22:27N 35°56' E 014°51'0 0.0
2018-Feb-06 22:00N 35°56' E 014°51'0 0.1
2018-Feb-06 21:30N 35°56' E 014°51'0 0.0
2018-Feb-06 21:00N 35°56' E 014°51'0 0.0
2018-Feb-06 20:27N 35°56' E 014°51'0 0.0
2018-Feb-06 20:00N 35°56' E 014°51'0 0.0
2018-Feb-06 19:27N 35°56' E 014°51'0 0.0
2018-Feb-06 19:00N 35°56' E 014°51'0 0.0
2018-Feb-06 18:24N 35°56' E 014°51'0 0.0
2018-Feb-06 18:00N 35°56' E 014°51'0 0.0
2018-Feb-06 17:24N 35°56' E 014°51'0 0.0
2018-Feb-06 16:57N 35°56' E 014°51'0 0.0
2018-Feb-06 16:30N 35°56' E 014°51'0 0.0
2018-Feb-06 16:00N 35°56' E 014°51'0 0.0
2018-Feb-06 15:30N 35°56' E 014°51'0 0.0
2018-Feb-06 15:00N 35°56' E 014°51'0 0.0
2018-Feb-06 14:30N 35°56' E 014°51'0 0.0
2018-Feb-06 13:57N 35°56' E 014°51'0 0.0
2018-Feb-06 13:27N 35°56' E 014°51'0 0.0
2018-Feb-06 12:57N 35°56' E 014°51'0 0.0
2018-Feb-06 12:30N 35°56' E 014°51'0 0.0
2018-Feb-06 12:00N 35°56' E 014°51'0 0.0
2018-Feb-06 11:24N 35°56' E 014°51'0 0.0
2018-Feb-06 11:00N 35°56' E 014°51'0 0.0
2018-Feb-06 10:21N 35°56' E 014°51'0 0.0
2018-Feb-06 10:00N 35°56' E 014°51'0 0.0
2018-Feb-06 09:30N 35°56' E 014°51'0 0.0
2018-Feb-06 09:00N 35°56' E 014°51'0 0.0
2018-Feb-06 08:27N 35°56' E 014°51'0 0.0
2018-Feb-06 07:54N 35°56' E 014°51'0 0.0
2018-Feb-06 07:18N 35°56' E 014°51'0 0.0
2018-Feb-06 06:57N 35°56' E 014°51'0 0.0
2018-Feb-06 06:21N 35°56' E 014°51'0 0.0
2018-Feb-06 06:00N 35°56' E 014°51'0 0.0
2018-Feb-06 05:15N 35°56' E 014°51'0 0.0
2018-Feb-06 05:00N 35°56' E 014°51'0 0.0
2018-Feb-06 04:27N 35°56' E 014°51'0 0.0
2018-Feb-06 04:00N 35°56' E 014°51'0 0.0
2018-Feb-06 03:30N 35°56' E 014°51'0 0.1
2018-Feb-06 02:57N 35°56' E 014°51'0 0.0
2018-Feb-06 02:03N 35°56' E 014°51'0 0.0
2018-Feb-06 01:51N 35°56' E 014°51'0 0.0
2018-Feb-06 01:24N 35°56' E 014°51'0 0.0
2018-Feb-06 01:00N 35°56' E 014°51'0 0.0
2018-Feb-06 00:30N 35°56' E 014°51'0 0.0
2018-Feb-05 23:51N 35°56' E 014°51'0 0.0
2018-Feb-05 23:30N 35°56' E 014°51'0 0.0
2018-Feb-05 22:48N 35°56' E 014°51'0 0.0
2018-Feb-05 22:09N 35°56' E 014°51'0 0.1
2018-Feb-05 22:00N 35°56' E 014°51'0 0.0
2018-Feb-05 21:30N 35°56' E 014°51'0 0.0
2018-Feb-05 20:51N 35°56' E 014°51'0 0.0
2018-Feb-05 20:27N 35°56' E 014°51'0 0.0
2018-Feb-05 19:57N 35°56' E 014°51'0 0.0
2018-Feb-05 19:30N 35°56' E 014°51'0 0.0
2018-Feb-05 18:54N 35°56' E 014°51'0 0.0
2018-Feb-05 17:51N 35°56' E 014°51'0 0.0
2018-Feb-05 17:27N 35°56' E 014°51'0 0.1
2018-Feb-05 16:51N 35°56' E 014°51'0 0.0
2018-Feb-05 16:30N 35°56' E 014°51'0 0.0
2018-Feb-05 16:00N 35°56' E 014°51'0 0.0
2018-Feb-05 15:30N 35°56' E 014°51'0 0.0
2018-Feb-05 15:00N 35°56' E 014°51'0 0.0
2018-Feb-05 14:30N 35°56' E 014°51'0 0.0
2018-Feb-05 13:54N 35°56' E 014°51'0 0.0
2018-Feb-05 13:27N 35°56' E 014°51'0 0.0
2018-Feb-05 12:57N 35°56' E 014°51'0 0.0
2018-Feb-05 12:24N 35°56' E 014°51'0 0.0
2018-Feb-05 12:00N 35°56' E 014°51'0 0.0
2018-Feb-05 11:24N 35°56' E 014°51'0 0.0
2018-Feb-05 11:00N 35°56' E 014°51'0 0.0
2018-Feb-05 10:27N 35°56' E 014°51'0 0.0
2018-Feb-05 09:39N 35°56' E 014°51'0 0.1
2018-Feb-05 09:16N 35°56' E 014°51'0 1.3
2018-Feb-05 09:00N 35°56' E 014°52'  

Dump ship's entire track history